Time;durP1;ratioP1;P1;durP2;ratioP2;P2;SDS_P1;SDS_P2;PMS_P1;PMS_P2;Temp;Humidity;BMP_temperature;BMP_pressure;BME280_temperature;BME280_humidity;BME280_pressure;Samples;Min_cycle;Max_cycle;Signal;HPM_P1;HPM_P2
2023/09/28 00:00:35;;;;;;;12.35;6.22;;;;;;;18.24;78.73;101138.22;5067721;28;20041;-78
2023/09/28 00:03:04;;;;;;;8.50;6.65;;;;;;;18.20;78.61;101137.06;5077109;22;20049;-79
2023/09/28 00:05:29;;;;;;;7.93;6.20;;;;;;;18.25;78.67;101133.63;5082912;28;20496;-79
2023/09/28 00:07:57;;;;;;;6.75;6.05;;;;;;;18.26;78.45;101130.66;5076477;28;20079;-79
2023/09/28 00:10:23;;;;;;;10.85;6.60;;;;;;;18.26;78.48;101141.53;5082296;28;21849;-78
2023/09/28 00:12:49;;;;;;;7.60;6.80;;;;;;;18.20;78.60;101141.69;5075252;28;20096;-78
2023/09/28 00:15:15;;;;;;;9.90;6.88;;;;;;;18.26;78.50;101144.28;5068003;28;20088;-79
2023/09/28 00:17:40;;;;;;;9.68;7.07;;;;;;;18.29;78.26;101148.41;5069570;28;20063;-79
2023/09/28 00:20:16;;;;;;;9.45;6.53;;;;;;;18.24;78.36;101145.59;5082855;28;20028;-80
2023/09/28 00:22:42;;;;;;;8.68;6.50;;;;;;;18.24;78.72;101153.78;5074272;28;20021;-79
2023/09/28 00:25:11;;;;;;;9.38;6.53;;;;;;;18.28;78.15;101139.41;5076577;28;20031;-79
2023/09/28 00:27:43;;;;;;;8.82;7.30;;;;;;;18.20;79.02;101149.88;5054528;28;20021;-79
2023/09/28 00:30:09;;;;;;;9.18;7.60;;;;;;;18.23;78.48;101141.22;5079113;28;20103;-79
2023/09/28 00:32:36;;;;;;;9.98;7.40;;;;;;;18.18;78.72;101150.09;5076403;28;20025;-79
2023/09/28 00:35:04;;;;;;;11.32;7.20;;;;;;;18.18;78.94;101147.34;5067886;28;20029;-79
2023/09/28 00:37:30;;;;;;;9.57;8.05;;;;;;;18.19;78.59;101149.00;5078268;28;20463;-79
2023/09/28 00:39:55;;;;;;;7.88;7.15;;;;;;;18.14;78.78;101148.94;5081152;28;20017;-79
2023/09/28 00:42:22;;;;;;;9.80;7.00;;;;;;;18.09;79.05;101146.91;5082124;28;20038;-79
2023/09/28 00:44:48;;;;;;;8.20;6.97;;;;;;;18.17;78.33;101154.72;5062613;28;20029;-79
2023/09/28 00:47:14;;;;;;;9.27;7.30;;;;;;;18.15;78.30;101161.50;5071632;28;20020;-79
2023/09/28 00:49:39;;;;;;;9.57;6.50;;;;;;;18.17;78.35;101162.09;5067039;28;20333;-80
2023/09/28 00:52:07;;;;;;;7.75;6.50;;;;;;;18.17;78.57;101159.34;5067270;28;20028;-78
2023/09/28 00:54:33;;;;;;;8.35;6.90;;;;;;;18.20;77.95;101169.75;5054899;28;20115;-79
2023/09/28 00:56:59;;;;;;;9.38;5.95;;;;;;;18.19;77.93;101157.19;5048594;28;20044;-79
2023/09/28 00:59:24;;;;;;;7.95;6.63;;;;;;;18.17;78.19;101157.44;5066593;28;20029;-79
2023/09/28 01:01:50;;;;;;;6.97;6.25;;;;;;;18.15;78.00;101170.47;5071326;28;20036;-79
2023/09/28 01:04:16;;;;;;;7.07;5.85;;;;;;;18.16;77.91;101168.59;5075661;28;20032;-81
2023/09/28 01:06:41;;;;;;;6.85;6.15;;;;;;;18.17;77.67;101162.91;5039649;28;20085;-79
2023/09/28 01:09:08;;;;;;;7.68;6.18;;;;;;;18.16;77.66;101168.59;5073505;28;20040;-79
2023/09/28 01:11:34;;;;;;;6.65;6.05;;;;;;;18.15;77.72;101169.66;5065347;28;20020;-79
2023/09/28 01:14:01;;;;;;;7.43;6.13;;;;;;;18.10;77.79;101167.63;5069775;28;20032;-80
2023/09/28 01:16:26;;;;;;;8.18;5.68;;;;;;;18.08;77.95;101177.13;5071746;28;20108;-79
2023/09/28 01:18:53;;;;;;;8.43;6.28;;;;;;;18.10;77.90;101172.28;5077078;28;20057;-79
2023/09/28 01:21:19;;;;;;;7.45;6.50;;;;;;;18.09;77.77;101184.22;5077798;28;20028;-80
2023/09/28 01:23:45;;;;;;;6.75;6.05;;;;;;;17.97;78.41;101171.44;5068772;28;20051;-79
2023/09/28 01:26:11;;;;;;;6.60;5.90;;;;;;;17.93;78.82;101169.41;5060419;28;20082;-80
2023/09/28 01:28:36;;;;;;;7.15;5.97;;;;;;;17.92;78.72;101168.59;5084882;28;20039;-80
2023/09/28 01:31:01;;;;;;;7.35;5.57;;;;;;;17.96;78.41;101175.22;5076333;28;20041;-80
2023/09/28 01:33:27;;;;;;;7.85;5.80;;;;;;;17.96;78.44;101166.22;5054803;28;20404;-79
2023/09/28 01:35:53;;;;;;;7.50;5.85;;;;;;;18.00;78.15;101181.84;5080102;28;20608;-79
2023/09/28 01:38:32;;;;;;;6.90;5.72;;;;;;;18.02;77.93;101173.47;5084362;28;20047;-79
2023/09/28 01:40:58;;;;;;;8.05;5.28;;;;;;;18.07;77.72;101164.56;5044192;28;20036;-79
2023/09/28 01:43:23;;;;;;;6.93;5.72;;;;;;;18.02;77.83;101152.50;5074565;28;20023;-80
2023/09/28 01:45:49;;;;;;;6.30;5.70;;;;;;;18.04;77.90;101155.00;5084300;28;20020;-80
2023/09/28 01:48:15;;;;;;;6.10;5.50;;;;;;;18.03;77.98;101159.59;5078268;28;20039;-80
2023/09/28 01:50:40;;;;;;;6.50;5.85;;;;;;;18.01;77.93;101167.19;5082588;28;20032;-79
2023/09/28 01:53:06;;;;;;;5.70;5.10;;;;;;;17.98;78.08;101169.56;5092791;28;20024;-79
2023/09/28 01:55:37;;;;;;;7.63;5.50;;;;;;;17.97;77.84;101160.53;5070111;28;20059;-80
2023/09/28 01:58:07;;;;;;;5.80;5.25;;;;;;;17.92;78.40;101163.16;5088349;28;20048;-78
2023/09/28 02:00:33;;;;;;;5.82;4.75;;;;;;;17.83;78.71;101170.00;5076919;28;20044;-80
2023/09/28 02:02:59;;;;;;;6.90;5.10;;;;;;;17.85;78.25;101174.16;5084711;28;20052;-79
2023/09/28 02:05:25;;;;;;;6.32;5.18;;;;;;;17.86;78.21;101180.44;5084434;28;20522;-80
2023/09/28 02:07:51;;;;;;;6.00;5.40;;;;;;;17.79;78.49;101182.47;5087747;28;20498;-79
2023/09/28 02:10:19;;;;;;;6.07;5.18;;;;;;;17.71;78.49;101173.56;5077239;28;20094;-79
2023/09/28 02:12:48;;;;;;;5.40;4.90;;;;;;;17.73;78.76;101176.06;5091009;28;20122;-80
2023/09/28 02:15:16;;;;;;;7.13;5.15;;;;;;;17.70;78.97;101177.34;5089011;28;20048;-79
2023/09/28 02:17:45;;;;;;;5.55;5.03;;;;;;;17.68;78.81;101163.16;5073815;28;20392;-79
2023/09/28 02:20:15;;;;;;;5.32;4.80;;;;;;;17.69;78.60;101169.44;5083562;28;20024;-81
2023/09/28 02:22:46;;;;;;;5.35;4.85;;;;;;;17.66;78.77;101173.44;5077998;28;20024;-81
2023/09/28 02:25:17;;;;;;;5.57;4.97;;;;;;;17.60;79.10;101170.84;5071895;28;20055;-80
2023/09/28 02:27:43;;;;;;;6.03;4.85;;;;;;;17.57;78.99;101172.16;5091805;28;20024;-79
2023/09/28 02:30:14;;;;;;;5.68;5.10;;;;;;;17.58;79.21;101173.81;5089866;28;20032;-80
2023/09/28 02:32:43;;;;;;;6.72;5.20;;;;;;;17.56;79.39;101175.94;5095384;28;20046;-80
2023/09/28 02:35:16;;;;;;;5.80;5.10;;;;;;;17.54;79.20;101183.50;5097888;28;20028;-80
2023/09/28 02:37:43;;;;;;;7.10;5.35;;;;;;;17.55;79.20;101185.16;5059113;28;20459;-80
2023/09/28 02:40:12;;;;;;;5.25;4.78;;;;;;;17.49;79.55;101194.25;5080534;28;20062;-80
2023/09/28 02:42:37;;;;;;;5.00;4.50;;;;;;;17.48;79.90;101198.06;5071093;28;20078;-80
2023/09/28 02:45:11;;;;;;;5.05;4.55;;;;;;;17.42;80.34;101206.09;5073672;28;20054;-80
2023/09/28 02:47:36;;;;;;;5.45;4.80;;;;;;;17.37;80.28;101208.69;5064472;28;20032;-79
2023/09/28 02:50:03;;;;;;;5.43;4.88;;;;;;;17.33;80.68;101204.78;5084355;28;20024;-79
2023/09/28 02:52:29;;;;;;;8.32;5.40;;;;;;;17.34;80.86;101201.00;5069662;28;20495;-80
2023/09/28 02:54:54;;;;;;;5.35;4.85;;;;;;;17.27;81.06;101206.53;5078861;28;20020;-80
2023/09/28 02:57:21;;;;;;;5.22;4.72;;;;;;;17.25;81.51;101207.84;5080577;28;20039;-79
2023/09/28 02:59:48;;;;;;;6.10;5.15;;;;;;;17.28;81.34;101212.84;5075562;28;20043;-79
2023/09/28 03:02:14;;;;;;;5.68;5.00;;;;;;;17.19;81.46;101215.06;5095997;28;20078;-80
2023/09/28 03:04:39;;;;;;;6.25;5.10;;;;;;;17.17;81.84;101219.06;5078174;28;20107;-81
2023/09/28 03:07:05;;;;;;;6.95;5.65;;;;;;;17.11;82.18;101215.38;5040880;28;20057;-81
2023/09/28 03:09:32;;;;;;;6.18;5.13;;;;;;;17.02;82.74;101214.06;5049674;28;20016;-80
2023/09/28 03:11:58;;;;;;;5.97;5.40;;;;;;;17.00;82.79;101218.91;5077900;28;20026;-80
2023/09/28 03:14:25;;;;;;;10.10;5.65;;;;;;;16.99;82.94;101220.78;5065376;28;20029;-80
2023/09/28 03:16:50;;;;;;;7.22;5.40;;;;;;;16.94;83.32;101218.72;5070072;28;20341;-80
2023/09/28 03:19:16;;;;;;;7.97;5.43;;;;;;;16.92;83.51;101225.47;5082606;28;20063;-80
2023/09/28 03:21:42;;;;;;;6.38;5.35;;;;;;;16.86;83.67;101229.91;5077922;28;20108;-80
2023/09/28 03:24:08;;;;;;;6.28;5.68;;;;;;;16.81;84.14;101229.78;5078593;28;20059;-80
2023/09/28 03:26:34;;;;;;;9.27;5.60;;;;;;;16.76;84.23;101230.47;5084652;28;20365;-80
2023/09/28 03:28:59;;;;;;;7.70;5.05;;;;;;;16.69;84.89;101232.44;5073351;28;20042;-80
2023/09/28 03:31:27;;;;;;;6.15;5.03;;;;;;;16.68;84.87;101228.06;5080492;28;20456;-80
2023/09/28 03:33:55;;;;;;;7.28;5.03;;;;;;;16.70;84.81;101235.97;5076745;28;20079;-80
2023/09/28 03:36:21;;;;;;;6.63;4.80;;;;;;;16.73;85.01;101232.81;5082726;28;20043;-80
2023/09/28 03:38:47;;;;;;;6.50;4.95;;;;;;;16.74;84.79;101239.91;5083708;28;20031;-80
2023/09/28 03:41:13;;;;;;;6.50;4.82;;;;;;;16.75;84.98;101236.13;5086602;28;20095;-80
2023/09/28 03:43:38;;;;;;;8.23;5.10;;;;;;;16.68;85.07;101230.78;5095410;28;20029;-80
2023/09/28 03:46:04;;;;;;;5.85;5.07;;;;;;;16.65;85.61;101232.06;5085049;28;20017;-80
2023/09/28 03:48:30;;;;;;;6.38;5.35;;;;;;;16.62;85.93;101231.69;5080788;28;20020;-80
2023/09/28 03:50:56;;;;;;;7.28;5.00;;;;;;;16.54;86.69;101232.00;5083030;28;20045;-80
2023/09/28 03:53:21;;;;;;;5.78;4.80;;;;;;;16.45;87.65;101232.28;5082257;28;20411;-80
2023/09/28 03:55:49;;;;;;;5.40;4.85;;;;;;;16.51;87.43;101247.72;5064017;28;20021;-80
2023/09/28 03:58:15;;;;;;;7.97;4.75;;;;;;;16.41;87.44;101247.41;5069279;28;20028;-80
2023/09/28 04:00:41;;;;;;;6.32;4.97;;;;;;;16.44;87.89;101240.69;5074765;28;20105;-80
2023/09/28 04:03:07;;;;;;;5.80;4.85;;;;;;;16.44;88.01;101246.13;5076221;28;20504;-80
2023/09/28 04:05:33;;;;;;;5.00;4.50;;;;;;;16.34;88.19;101246.66;5072540;28;20076;-80
2023/09/28 04:07:58;;;;;;;7.07;5.25;;;;;;;16.26;88.60;101255.09;5077963;28;20392;-80
2023/09/28 04:10:23;;;;;;;5.38;4.88;;;;;;;16.08;89.44;101256.72;5085449;28;20086;-80
2023/09/28 04:12:49;;;;;;;5.80;5.20;;;;;;;16.07;90.03;101265.91;5072401;28;20013;-80
2023/09/28 04:15:16;;;;;;;6.80;5.25;;;;;;;15.97;90.52;101262.91;5073141;28;20121;-80
2023/09/28 04:17:41;;;;;;;9.77;5.45;;;;;;;15.94;91.31;101264.19;5067279;28;20024;-81
2023/09/28 04:20:09;;;;;;;7.35;5.40;;;;;;;15.95;91.24;101265.00;5069258;28;20017;-81
2023/09/28 04:22:34;;;;;;;6.13;5.30;;;;;;;16.01;91.14;101273.09;5071263;28;20586;-81
2023/09/28 04:25:00;;;;;;;6.20;4.93;;;;;;;15.97;91.30;101268.31;5081104;28;20017;-81
2023/09/28 04:27:26;;;;;;;6.95;4.97;;;;;;;15.99;91.42;101285.22;5077788;28;20423;-81
2023/09/28 04:29:54;;;;;;;6.15;5.35;;;;;;;15.98;91.42;101278.13;5083468;28;20024;-81
2023/09/28 04:32:19;;;;;;;7.25;5.60;;;;;;;15.94;91.77;101287.78;5070296;28;20047;-79
2023/09/28 04:34:45;;;;;;;7.25;6.00;;;;;;;15.85;92.49;101296.22;5073149;28;20512;-79
2023/09/28 04:37:12;;;;;;;7.50;5.60;;;;;;;15.90;92.34;101296.34;5078557;28;20138;-77
2023/09/28 04:39:37;;;;;;;6.47;5.70;;;;;;;15.88;92.26;101297.63;5083025;28;20027;-79
2023/09/28 04:42:05;;;;;;;6.82;5.60;;;;;;;15.77;93.06;101301.88;5074551;28;20487;-78
2023/09/28 04:44:31;;;;;;;7.30;5.65;;;;;;;15.73;93.25;101300.63;5083721;28;20035;-80
2023/09/28 04:46:56;;;;;;;8.35;5.45;;;;;;;15.67;93.62;101298.81;5084505;28;20029;-80
2023/09/28 04:49:22;;;;;;;7.75;5.72;;;;;;;15.71;94.00;101291.88;5069297;28;20032;-81
2023/09/28 04:51:47;;;;;;;8.38;5.57;;;;;;;15.69;94.06;101294.84;5082403;28;20042;-80
2023/09/28 04:54:12;;;;;;;6.00;5.40;;;;;;;15.67;94.40;101287.97;5078162;28;20040;-80
2023/09/28 04:56:39;;;;;;;6.18;5.57;;;;;;;15.69;94.28;101294.84;5059013;28;20028;-80
2023/09/28 04:59:05;;;;;;;6.47;5.55;;;;;;;15.60;94.99;101290.75;5081442;28;20028;-80
2023/09/28 05:01:31;;;;;;;7.80;6.00;;;;;;;15.60;95.01;101290.75;5072388;28;20047;-80
2023/09/28 05:03:57;;;;;;;7.55;5.80;;;;;;;15.63;95.02;101292.97;5068294;28;20025;-80
2023/09/28 05:06:22;;;;;;;6.28;5.30;;;;;;;15.59;95.16;101289.88;5073973;28;20384;-79
2023/09/28 05:08:49;;;;;;;6.30;5.70;;;;;;;15.64;95.17;101280.25;5077680;28;20120;-80
2023/09/28 05:11:16;;;;;;;6.57;5.88;;;;;;;15.58;94.93;101280.09;5084722;28;20047;-79
2023/09/28 05:13:42;;;;;;;6.45;5.68;;;;;;;15.43;95.70;101282.28;5064256;28;20047;-79
2023/09/28 05:16:07;;;;;;;6.60;6.00;;;;;;;15.39;96.56;101283.75;5080387;28;20507;-79
2023/09/28 05:18:34;;;;;;;6.95;6.10;;;;;;;15.27;97.17;101281.75;5081892;28;20047;-80
2023/09/28 05:21:00;;;;;;;6.82;6.05;;;;;;;15.19;97.61;101289.31;5055022;28;20426;-79
2023/09/28 05:23:25;;;;;;;8.65;6.00;;;;;;;15.17;98.57;101292.25;5078953;28;20279;-80
2023/09/28 05:25:51;;;;;;;5.90;5.25;;;;;;;15.04;99.42;101286.88;5092864;28;20024;-77
2023/09/28 05:28:16;;;;;;;6.93;6.18;;;;;;;15.06;99.83;101296.47;5087203;28;20032;-78
2023/09/28 05:30:44;;;;;;;7.03;6.32;;;;;;;15.07;99.91;101303.56;5070481;28;20493;-78
2023/09/28 05:33:09;;;;;;;12.75;6.55;;;;;;;15.08;100.00;101304.38;5052768;28;20529;-77
2023/09/28 05:35:35;;;;;;;7.28;5.88;;;;;;;15.08;100.00;101296.25;5083669;28;20082;-79
2023/09/28 05:38:00;;;;;;;8.23;6.03;;;;;;;15.13;100.00;101315.44;5068861;28;20141;-77
2023/09/28 05:40:28;;;;;;;7.40;6.00;;;;;;;15.15;100.00;101316.03;5073265;28;21798;-88
2023/09/28 05:42:54;;;;;;;9.10;6.10;;;;;;;15.21;100.00;101328.72;5084610;28;20035;-79
2023/09/28 05:45:20;;;;;;;7.63;5.90;;;;;;;15.28;100.00;101334.97;5073087;28;20107;-79
2023/09/28 05:47:54;;;;;;;7.22;5.82;;;;;;;15.22;100.00;101338.53;5095778;22;20027;-79
2023/09/28 05:51:07;;;;;;;9.23;6.10;;;;;;;15.24;100.00;101339.13;5070084;28;20056;-79
2023/09/28 05:53:32;;;;;;;9.23;5.75;;;;;;;15.35;99.97;101356.63;5073992;28;20028;-79
2023/09/28 05:56:10;;;;;;;8.32;5.90;;;;;;;15.33;100.00;101349.75;5084514;28;20032;-82
2023/09/28 05:58:39;;;;;;;7.45;6.00;;;;;;;15.36;100.00;101354.72;5081772;28;20134;-81
2023/09/28 06:03:49;;;;;;;8.03;5.90;;;;;;;15.72;98.80;101358.69;5039807;26;20509;-80
2023/09/28 06:06:22;;;;;;;6.78;6.03;;;;;;;15.86;98.15;101368.47;5042729;28;20532;-79
2023/09/28 06:12:18;;;;;;;6.15;5.50;;;;;;;15.89;96.56;101376.16;5065471;28;20482;-79
2023/09/28 06:14:45;;;;;;;8.15;5.40;;;;;;;16.13;95.72;101378.28;5038169;28;20052;-79
2023/09/28 06:17:13;;;;;;;6.95;5.43;;;;;;;16.43;92.86;101378.44;5058001;28;20468;-79
2023/09/28 06:19:39;;;;;;;7.22;4.75;;;;;;;17.08;89.25;101382.59;5050386;28;20468;-78
2023/09/28 06:22:09;;;;;;;7.50;5.38;;;;;;;17.55;86.15;101392.06;5059497;28;20029;-77
2023/09/28 06:24:44;;;;;;;6.25;5.30;;;;;;;18.13;82.53;101396.03;5050934;28;20404;-79
2023/09/28 06:27:10;;;;;;;6.82;5.50;;;;;;;18.76;79.35;101395.59;5056191;28;20079;-77
2023/09/28 06:29:36;;;;;;;6.90;5.15;;;;;;;18.92;78.22;101403.03;5058409;28;20436;-77
2023/09/28 06:32:01;;;;;;;8.70;5.20;;;;;;;19.01;77.45;101403.53;5054712;28;20032;-75
2023/09/28 06:34:27;;;;;;;11.40;5.70;;;;;;;19.01;76.68;101408.16;5054042;28;20126;-75
2023/09/28 06:36:53;;;;;;;7.40;5.60;;;;;;;19.38;76.30;101413.28;5057854;28;20028;-77
2023/09/28 06:39:18;;;;;;;8.32;5.38;;;;;;;19.19;76.09;101413.47;5059637;28;20476;-76
2023/09/28 06:41:44;;;;;;;8.30;5.20;;;;;;;19.81;74.23;101419.28;5055545;28;20048;-76
2023/09/28 06:44:10;;;;;;;5.78;5.07;;;;;;;20.07;72.59;101420.59;5060977;28;20492;-76
2023/09/28 06:46:36;;;;;;;6.72;4.80;;;;;;;20.42;71.10;101422.28;5060047;28;20050;-78
2023/09/28 06:49:01;;;;;;;7.22;5.38;;;;;;;20.89;69.33;101414.75;5059983;28;20111;-73
2023/09/28 06:51:27;;;;;;;7.45;5.53;;;;;;;20.62;69.47;101414.59;5064585;28;20025;-80
2023/09/28 06:53:52;;;;;;;6.80;5.20;;;;;;;21.14;68.56;101410.72;5054290;28;20580;-75
2023/09/28 06:56:19;;;;;;;10.00;5.28;;;;;;;21.81;65.88;101408.72;5067193;28;20021;-77
2023/09/28 06:58:46;;;;;;;6.55;4.95;;;;;;;22.01;65.05;101407.28;5049020;28;20040;-76
2023/09/28 07:01:12;;;;;;;7.13;5.00;;;;;;;22.60;62.16;101400.03;5047773;28;20580;-77
2023/09/28 07:03:37;;;;;;;7.13;4.80;;;;;;;22.62;62.27;101406.94;5055296;28;20041;-75
2023/09/28 07:06:05;;;;;;;9.32;5.13;;;;;;;22.53;62.46;101408.50;5059334;28;20120;-75
2023/09/28 07:08:31;;;;;;;9.18;5.25;;;;;;;22.65;62.41;101424.78;5056917;28;20072;-79
2023/09/28 07:10:56;;;;;;;6.35;5.00;;;;;;;22.67;61.48;101423.44;5059677;28;20540;-79
2023/09/28 07:13:24;;;;;;;9.27;5.45;;;;;;;22.85;60.53;101427.66;5058154;28;20342;-76
2023/09/28 07:15:50;;;;;;;6.78;5.10;;;;;;;22.46;62.32;101433.44;5052188;28;20033;-77
2023/09/28 07:18:22;;;;;;;6.78;5.05;;;;;;;22.46;62.65;101436.19;5054962;28;20035;-78
2023/09/28 07:20:48;;;;;;;9.15;5.40;;;;;;;22.08;63.13;101435.28;5050834;28;20076;-76
2023/09/28 07:23:13;;;;;;;7.22;5.15;;;;;;;22.37;63.05;101437.72;5051260;28;20073;-77
2023/09/28 07:25:41;;;;;;;7.47;5.13;;;;;;;23.12;60.67;101437.66;5052219;28;20409;-76
2023/09/28 07:28:06;;;;;;;6.65;4.93;;;;;;;23.21;59.89;101450.91;5051971;28;20079;-77
2023/09/28 07:30:32;;;;;;;7.32;4.78;;;;;;;23.50;59.15;101447.72;5045476;28;20028;-77
2023/09/28 07:32:57;;;;;;;8.07;5.15;;;;;;;23.80;57.48;101457.97;5065882;28;20028;-77
2023/09/28 07:35:22;;;;;;;9.30;4.53;;;;;;;24.06;56.76;101466.31;5062737;28;20377;-76
2023/09/28 07:37:49;;;;;;;6.75;4.53;;;;;;;24.19;56.04;101470.44;5071901;28;20081;-76
2023/09/28 07:40:17;;;;;;;7.50;5.00;;;;;;;24.03;56.92;101472.34;5054663;28;20119;-75
2023/09/28 07:42:43;;;;;;;9.82;4.85;;;;;;;23.02;58.83;101465.06;5053125;28;20048;-75
2023/09/28 07:45:12;;;;;;;9.45;4.90;;;;;;;23.25;59.05;101466.59;5047252;28;20064;-75
2023/09/28 07:47:44;;;;;;;7.15;4.70;;;;;;;23.91;56.47;101469.81;5063391;28;20048;-75
2023/09/28 07:50:14;;;;;;;9.88;4.30;;;;;;;24.84;53.36;101480.91;5060225;28;20033;-75
2023/09/28 07:52:40;;;;;;;10.50;4.60;;;;;;;23.82;55.48;101474.22;5071933;28;20167;-75
2023/09/28 07:55:07;;;;;;;10.07;4.70;;;;;;;23.84;55.01;101483.00;5057893;28;20539;-75
2023/09/28 07:57:33;;;;;;;12.52;4.72;;;;;;;22.99;58.31;101482.06;5058421;28;20473;-74
2023/09/28 07:59:59;;;;;;;8.88;4.03;;;;;;;24.01;55.93;101491.03;5037334;28;20043;-75
2023/09/28 08:02:25;;;;;;;9.65;3.92;;;;;;;26.10;49.19;101491.09;5068357;28;20040;-75
2023/09/28 08:04:51;;;;;;;9.02;3.78;;;;;;;25.29;50.26;101489.31;5060698;28;20028;-75
2023/09/28 08:07:17;;;;;;;8.25;3.47;;;;;;;26.27;47.48;101491.53;5057532;28;20052;-75
2023/09/28 08:09:42;;;;;;;8.98;3.60;;;;;;;25.91;46.93;101497.28;5052973;28;20491;-75
2023/09/28 08:12:08;;;;;;;12.95;3.92;;;;;;;25.35;48.32;101501.13;5055149;28;20084;-75
2023/09/28 08:14:33;;;;;;;11.13;3.95;;;;;;;24.97;50.13;101516.09;5051165;28;20488;-75
2023/09/28 08:17:00;;;;;;;10.63;3.45;;;;;;;25.53;49.02;101519.00;5058132;28;20120;-75
2023/09/28 08:19:27;;;;;;;9.85;3.65;;;;;;;27.25;44.04;101522.94;5057865;28;20055;-75
2023/09/28 08:21:52;;;;;;;11.27;3.40;;;;;;;25.26;47.99;101529.25;5052667;28;20029;-75
2023/09/28 08:24:18;;;;;;;13.93;4.03;;;;;;;24.74;49.55;101525.78;5054871;28;20417;-75
2023/09/28 08:26:44;;;;;;;10.93;3.42;;;;;;;25.47;48.25;101537.50;5050105;28;20037;-75
2023/09/28 08:29:09;;;;;;;11.65;3.47;;;;;;;24.87;48.77;101546.44;5059018;28;20029;-75
2023/09/28 08:31:34;;;;;;;10.45;3.25;;;;;;;24.78;49.07;101548.06;5056618;28;20037;-75
2023/09/28 08:34:00;;;;;;;11.18;3.38;;;;;;;24.72;49.38;101546.41;5054467;28;20020;-75
2023/09/28 08:36:26;;;;;;;14.18;3.80;;;;;;;23.56;51.46;101542.84;5049491;28;20028;-74
2023/09/28 08:38:53;;;;;;;13.30;3.47;;;;;;;23.38;52.09;101542.22;5052514;28;20045;-74
2023/09/28 08:41:43;;;;;;;14.20;3.67;;;;;;;23.70;51.44;101554.19;5057167;28;20021;-75
2023/09/28 08:44:08;;;;;;;12.38;3.60;;;;;;;24.09;52.04;101542.78;5041194;28;20028;-74
2023/09/28 08:46:40;;;;;;;11.13;3.47;;;;;;;25.71;46.49;101536.84;5040185;28;20060;-74
2023/09/28 08:49:10;;;;;;;11.40;3.65;;;;;;;25.77;46.61;101543.97;5063522;28;20051;-77
2023/09/28 08:51:36;;;;;;;13.20;3.40;;;;;;;26.15;45.11;101544.34;5050333;28;20071;-77
2023/09/28 08:54:05;;;;;;;10.40;3.20;;;;;;;26.72;43.36;101543.91;5035640;28;20512;-77
2023/09/28 08:56:35;;;;;;;10.77;3.10;;;;;;;27.09;43.17;101545.22;5056597;28;20047;-76
2023/09/28 08:59:02;;;;;;;10.27;3.50;;;;;;;26.04;44.73;101551.00;5061595;28;20035;-76
2023/09/28 09:01:28;;;;;;;11.43;3.30;;;;;;;26.96;42.62;101548.69;5059966;28;20036;-77
2023/09/28 09:03:57;;;;;;;14.23;3.60;;;;;;;25.26;46.53;101534.75;5025560;28;20040;-77
2023/09/28 09:06:28;;;;;;;15.07;3.72;;;;;;;25.11;47.32;101526.53;5036498;28;20033;-75
2023/09/28 09:09:15;;;;;;;15.63;3.47;;;;;;;25.48;46.43;101544.66;5034554;28;20032;-76
2023/09/28 09:11:54;;;;;;;13.63;3.72;;;;;;;24.79;47.82;101553.31;5007272;28;20025;-77
2023/09/28 09:14:21;;;;;;;15.38;3.33;;;;;;;25.05;46.83;101552.47;5036902;28;20171;-76
2023/09/28 09:16:47;;;;;;;13.45;3.53;;;;;;;25.40;46.75;101567.25;5022026;28;20024;-77
2023/09/28 09:19:38;;;;;;;12.90;3.60;;;;;;;25.49;45.49;101565.59;5051509;28;20358;-76
2023/09/28 09:22:08;;;;;;;14.55;2.95;;;;;;;25.01;46.58;101556.88;5050790;28;20094;-76
2023/09/28 09:24:33;;;;;;;13.15;3.28;;;;;;;24.65;47.13;101555.78;5027700;28;20025;-76
2023/09/28 09:27:02;;;;;;;13.10;3.45;;;;;;;24.54;48.03;101556.84;5047153;28;20475;-76
2023/09/28 09:29:28;;;;;;;14.88;3.65;;;;;;;24.61;47.90;101551.91;5019530;28;20056;-77
2023/09/28 09:31:53;;;;;;;12.07;3.42;;;;;;;25.78;44.70;101553.88;5055550;28;20021;-77
2023/09/28 09:34:20;;;;;;;14.00;3.58;;;;;;;25.37;46.04;101552.09;5052363;28;20025;-77
2023/09/28 09:36:55;;;;;;;12.60;3.40;;;;;;;26.79;43.15;101557.38;5060722;28;20029;-76
2023/09/28 09:39:30;;;;;;;16.55;3.70;;;;;;;25.51;45.19;101560.63;5048940;28;20171;-76
2023/09/28 09:41:57;;;;;;;;;;;;;;;24.75;47.65;101563.25;5039783;28;20469;-77
2023/09/28 09:44:24;;;;;;;15.52;3.67;;;;;;;24.55;47.82;101566.75;5048539;28;19994;-77
2023/09/28 09:47:00;;;;;;;15.27;3.85;;;;;;;24.29;48.48;101572.25;5056475;22;20040;-76
2023/09/28 09:49:26;;;;;;;16.27;3.80;;;;;;;24.03;49.70;101566.69;5047761;28;20115;-76
2023/09/28 09:51:52;;;;;;;17.23;3.40;;;;;;;23.06;52.07;101554.09;5012326;28;20028;-75
2023/09/28 09:54:18;;;;;;;16.65;4.07;;;;;;;23.01;52.43;101565.03;5042626;28;20691;-75
2023/09/28 09:56:48;;;;;;;17.50;3.65;;;;;;;23.14;53.19;101571.97;5063595;28;20460;-76
2023/09/28 09:59:17;;;;;;;14.95;3.80;;;;;;;23.34;53.03;101571.31;5061914;28;20028;-75
2023/09/28 10:01:47;;;;;;;13.65;3.70;;;;;;;24.42;50.15;101572.81;5038227;28;20133;-74
2023/09/28 10:04:16;;;;;;;15.75;3.60;;;;;;;25.22;46.96;101580.53;5037681;28;20029;-75
2023/09/28 10:06:47;;;;;;;13.38;3.47;;;;;;;23.96;50.02;101582.59;5039000;28;20028;-75
2023/09/28 10:09:15;;;;;;;14.52;3.53;;;;;;;25.20;47.76;101582.75;5023471;28;20483;-75
2023/09/28 10:11:40;;;;;;;13.60;3.25;;;;;;;26.24;44.74;101579.63;5049956;28;20104;-75
2023/09/28 10:14:08;;;;;;;13.75;3.25;;;;;;;25.66;46.09;101586.50;5065773;28;20036;-74
2023/09/28 10:16:34;;;;;;;13.55;3.75;;;;;;;25.61;46.26;101575.47;5053058;28;20068;-75
2023/09/28 10:19:05;;;;;;;16.23;3.70;;;;;;;24.52;48.39;101573.66;5045798;28;21427;-75
2023/09/28 10:21:37;;;;;;;15.75;3.97;;;;;;;24.26;49.25;101566.47;5051056;28;20338;-75
2023/09/28 10:24:10;;;;;;;14.07;4.00;;;;;;;24.18;50.54;101556.84;5047138;28;20104;-75
2023/09/28 10:26:35;;;;;;;15.10;3.58;;;;;;;24.28;49.32;101561.50;5046002;28;20029;-75
2023/09/28 10:29:04;;;;;;;12.35;3.50;;;;;;;24.27;49.59;101563.44;5059322;28;20043;-76
2023/09/28 10:31:32;;;;;;;14.82;3.92;;;;;;;25.21;47.76;101562.34;5048297;28;20044;-76
2023/09/28 10:33:59;;;;;;;16.42;3.95;;;;;;;25.19;47.61;101560.97;5052180;28;20103;-76
2023/09/28 10:36:26;;;;;;;16.13;3.90;;;;;;;26.00;45.06;101560.94;5052193;28;20055;-78
2023/09/28 10:39:13;;;;;;;11.98;3.35;;;;;;;25.80;45.61;101562.72;5053158;28;20038;-74
2023/09/28 10:41:39;;;;;;;9.70;3.20;;;;;;;27.52;41.98;101555.56;5063198;28;20025;-75
2023/09/28 10:44:14;;;;;;;15.18;3.75;;;;;;;27.78;40.96;101562.69;5040301;28;20033;-76
2023/09/28 10:46:50;;;;;;;13.88;3.20;;;;;;;26.22;43.12;101565.28;5060652;28;20486;-76
2023/09/28 10:49:26;;;;;;;12.88;3.67;;;;;;;25.49;44.69;101562.84;5038822;28;20025;-76
2023/09/28 10:51:58;;;;;;;13.02;2.97;;;;;;;24.46;47.17;101562.91;5063668;28;20012;-77
2023/09/28 10:54:24;;;;;;;13.60;3.33;;;;;;;23.15;52.00;101552.47;5056150;28;20018;-75
2023/09/28 10:56:53;;;;;;;16.10;3.95;;;;;;;23.23;52.00;101555.88;5062146;28;20052;-76
2023/09/28 10:59:18;;;;;;;14.20;3.53;;;;;;;24.17;48.63;101555.19;5050353;28;20021;-78
2023/09/28 11:01:45;;;;;;;11.38;3.40;;;;;;;23.28;50.88;101558.66;5058799;28;20515;-78
2023/09/28 11:04:11;;;;;;;14.88;3.25;;;;;;;22.95;52.21;101558.66;5069265;28;20079;-78
2023/09/28 11:06:42;;;;;;;15.30;3.95;;;;;;;24.40;49.46;101564.00;5052475;28;20032;-78
2023/09/28 11:09:13;;;;;;;16.70;3.83;;;;;;;25.47;46.15;101565.06;5052006;28;20029;-78
2023/09/28 11:11:40;;;;;;;13.20;3.75;;;;;;;26.51;44.38;101565.34;5055071;28;20037;-78
2023/09/28 11:14:08;;;;;;;11.57;3.33;;;;;;;27.43;41.66;101570.28;5043728;28;21339;-78
2023/09/28 11:16:34;;;;;;;14.73;3.72;;;;;;;27.95;40.63;101571.31;5051208;28;20033;-79
2023/09/28 11:18:59;;;;;;;12.68;3.60;;;;;;;27.73;39.64;101580.19;5045597;28;20148;-76
2023/09/28 11:21:32;;;;;;;11.63;3.03;;;;;;;27.84;39.83;101578.13;5053048;28;20098;-75
2023/09/28 11:24:02;;;;;;;10.75;3.20;;;;;;;28.22;38.73;101572.66;5052991;28;20420;-76
2023/09/28 11:26:29;;;;;;;13.02;3.25;;;;;;;28.06;38.74;101571.19;5050182;28;20086;-76
2023/09/28 11:28:57;;;;;;;12.05;3.08;;;;;;;28.59;38.48;101559.03;5039973;28;20064;-76